Paragould, Arkansas
Current Conditions -  °F | °C
As of 7:35 AM on Sunday 23 Nov 2014 (Local Time) from K4M9 Reporting Station
Light Rain Light Rain  
Wind Chill: 55°   Ceiling: Unl
Heat Index: 55°   Visibility: 3mi
Dew Point: 55°   Wind: 10mph
Humidity: 100%   Direction: 130°SE
Pressure: 29.71"   Gusts: NA
Location:  36.06°N, 90.49°W
Report Text: K4M9 231335Z AUTO 13009KT 3SM -RA SCT013 13/13 A2971 RMK AO2 P0005
Loading
Personal Weather Stations






























Interactive Weather Map New forecast layout! Learn more

10-Day Weather Forecast

Advertisements
Track Severe Weather on mobile